Alta Loma, CA (91701)

3:20 AM PDT on June 03, 2015 (GMT -0700)
Amethyst at Manzanita | | Change Station
CLOSE
Current Station
Personal Weather Station
Location: Alta Loma, CA
Elevation: 1775 ft
Nearby Weather Stations

Elev 1775 ft 34.15 °N, 117.60 °W | Updated 8 seconds ago

Clear
Clear
56.5 °F
Feels Like 56.5 °F
N
0.0
Wind Variable Wind from North
Gusts 2.0 mph

Today
High -- | Low -- °F
--% Chance of Precip.
Yesterday
High -- | Low -- °F
Precip. -- in
5:39 AM 7:58 PM
Full, 99% visible
Pressure 29.90 in
Visibility 8.0 miles
Clouds Overcast 900 ft
Dew Point 55 °F
Humidity 94%
Rainfall 0.00 in
Snow Depth Not available.
UV 0 out of 12
Pollen 4.60 out of 12
Air Quality Not available.
Flu Activity Sporadic
METAR KONT 030953Z 26004KT 8SM OVC009 16/13 A2993 RMK AO2 SLP124 T01560133 $

More Conditions Fewer Conditions

Pressure 29.90 in
Visibility 8.0 miles
Clouds Overcast 900 ft
Dew Point 55 °F
Humidity 94%
Rainfall 0.00 in
Snow Depth Not available.
UV 0 out of 12
Pollen 4.60 out of 12
Air Quality Not available.
Flu Activity Sporadic
METAR KONT 030953Z 26004KT 8SM OVC009 16/13 A2993 RMK AO2 SLP124 T01560133 $

More Conditions Fewer Conditions

10-Day Weather Forecast

×

Almanac

Astronomy

Jun. 03, 2015 Rise Set
Actual Time
Civil Twilight
Nautical Twilight
Astronomical Twilight
Moon
Length of Visible Light
Length of Day
Tomorrow will be .
, % of the Moon is Illuminated

Today's Extremes

State Highs State Lows

Community

WunderPhotos

Upload Photos

1,826,198 photos uploaded!

WunderBlogs® & News

Nearby

Air Quality

  Air Quality AQ Index Pollutant
Not available.

Snow Depth

Station Depth Elevation

Earthquake Activity

City Distance Mag. Time & Date
Minimum magnitude displayed is 2.5.

Coastal Water Temperatures

Place Temperature

Stations

Nearby Weather Stations

Station Location Temp. Windchill Dew Point Humidity Wind Precip. Elev Updated Type